Terminal Aerodrome Forecast
Issued by NWS

Home | Current Version | Previous Version | Text Only | Print | Product List | Glossary On
Versions: 1 2 3 4 5 6 7 8 9 10 11 12 13 14 15 16 17 18
000
FTUS44 KLIX 260500
TAFGPT
TAF
KGPT 260526Z 2606/2706 33008KT P6SM SKC
     FM261100 34006KT P6SM FEW250
     FM261900 25010KT P6SM SKC
     FM270400 30012KT P6SM SKC=

USA.gov is the U.S. government's official web portal to all federal, state and local government web resources and services.